createdAt,value
2022-08-28T00:01:41.745Z,101158.91
2022-08-28T00:04:08.453Z,101159.75
2022-08-28T00:06:39.701Z,101157.06
2022-08-28T00:09:07.954Z,101158.88
2022-08-28T00:11:38.364Z,101158.81
2022-08-28T00:14:08.128Z,101163.38
2022-08-28T00:16:35.734Z,101154.28
2022-08-28T00:19:02.735Z,101163.31
2022-08-28T00:21:29.788Z,101160.53
2022-08-28T00:23:56.357Z,101161.50
2022-08-28T00:26:41.589Z,101155.94
2022-08-28T00:29:14.603Z,101163.19
2022-08-28T00:31:41.342Z,101161.41
2022-08-28T00:34:09.468Z,101159.50
2022-08-28T00:36:37.350Z,101157.66
2022-08-28T00:39:05.750Z,101159.47
2022-08-28T00:41:35.510Z,101155.78
2022-08-28T00:44:30.140Z,101161.22
2022-08-28T00:46:59.083Z,101162.22
2022-08-28T00:49:29.382Z,101161.22
2022-08-28T00:52:11.803Z,101159.38
2022-08-28T00:54:45.697Z,101157.56
2022-08-28T00:57:28.137Z,101163.13
2022-08-28T00:59:54.796Z,101158.59
2022-08-28T01:02:21.562Z,101156.72
2022-08-28T01:04:49.254Z,101159.50
2022-08-28T01:07:16.374Z,101160.38
2022-08-28T01:09:47.451Z,101154.00
2022-08-28T01:12:19.485Z,101158.50
2022-08-28T01:14:48.613Z,101160.38
2022-08-28T01:17:17.487Z,101153.13
2022-08-28T01:19:56.387Z,101158.69
2022-08-28T01:22:40.101Z,101159.59
2022-08-28T01:25:12.438Z,101152.44
2022-08-28T01:27:41.870Z,101161.63
2022-08-28T01:30:15.927Z,101160.81
2022-08-28T01:32:47.293Z,101168.88
2022-08-28T01:35:21.526Z,101166.28
2022-08-28T01:37:49.163Z,101166.38
2022-08-28T01:40:22.865Z,101176.50
2022-08-28T01:42:50.244Z,101164.75
2022-08-28T01:45:19.693Z,101167.63
2022-08-28T01:47:47.185Z,101167.66
2022-08-28T01:50:17.492Z,101174.16
2022-08-28T01:52:44.161Z,101170.72
2022-08-28T01:55:11.373Z,101179.91
2022-08-28T01:57:50.781Z,101182.69
2022-08-28T02:00:21.280Z,101186.41
2022-08-28T02:02:51.473Z,101185.56
2022-08-28T02:05:19.363Z,101183.91
2022-08-28T02:07:46.361Z,101183.06
2022-08-28T02:10:12.948Z,101189.38
2022-08-28T02:12:39.559Z,101192.19
2022-08-28T02:15:07.705Z,101192.22
2022-08-28T02:17:34.681Z,101197.72
2022-08-28T02:20:01.562Z,101192.34
2022-08-28T02:22:28.229Z,101197.88
2022-08-28T02:24:54.889Z,101191.50
2022-08-28T02:27:21.514Z,101190.75
2022-08-28T02:29:48.469Z,101191.75
2022-08-28T02:32:15.133Z,101193.66
2022-08-28T02:34:43.526Z,101199.06
2022-08-28T02:37:13.242Z,101204.56
2022-08-28T02:39:40.286Z,101203.69
2022-08-28T02:42:06.997Z,101205.53
2022-08-28T02:44:34.098Z,101204.66
2022-08-28T02:47:00.969Z,101202.88
2022-08-28T02:49:31.328Z,101196.59
2022-08-28T02:52:04.314Z,101192.91
2022-08-28T02:54:30.993Z,101201.09
2022-08-28T02:56:58.580Z,101205.59
2022-08-28T02:59:25.324Z,101196.53
2022-08-28T03:01:53.399Z,101196.53
2022-08-28T03:04:20.019Z,101196.53
2022-08-28T03:06:46.672Z,101196.53
2022-08-28T03:09:13.235Z,101193.75
2022-08-28T03:11:41.177Z,101197.38
2022-08-28T03:14:08.097Z,101191.00
2022-08-28T03:16:36.263Z,101191.16
2022-08-28T03:19:03.913Z,101197.47
2022-08-28T03:21:30.472Z,101188.47
2022-08-28T03:23:57.221Z,101194.97
2022-08-28T03:26:24.342Z,101191.34
2022-08-28T03:28:53.273Z,101200.47
2022-08-28T03:31:23.513Z,101195.94
2022-08-28T03:33:50.538Z,101196.88
2022-08-28T03:36:25.519Z,101192.44
2022-08-28T03:38:56.954Z,101187.09
2022-08-28T03:41:26.906Z,101187.25
2022-08-28T03:43:53.528Z,101191.72
2022-08-28T03:46:23.625Z,101193.53
2022-08-28T03:48:52.703Z,101191.69
2022-08-28T03:51:29.408Z,101187.16
2022-08-28T03:53:58.424Z,101189.97
2022-08-28T03:56:27.167Z,101190.94
2022-08-28T03:58:57.393Z,101191.97
2022-08-28T04:01:24.910Z,101192.00
2022-08-28T04:03:51.609Z,101198.28
2022-08-28T04:06:19.775Z,101198.28
2022-08-28T04:08:49.544Z,101191.22
2022-08-28T04:11:17.329Z,101197.63
2022-08-28T04:13:45.145Z,101203.19
2022-08-28T04:16:16.617Z,101206.81
2022-08-28T04:18:44.082Z,101203.19
2022-08-28T04:21:14.373Z,101201.44
2022-08-28T04:23:43.276Z,101205.13
2022-08-28T04:26:13.129Z,101210.47
2022-08-28T04:28:40.936Z,101213.16
2022-08-28T04:31:08.222Z,101214.97
2022-08-28T04:33:35.985Z,101219.50
2022-08-28T04:36:09.213Z,101222.22
2022-08-28T04:38:41.586Z,101224.00
2022-08-28T04:41:12.834Z,101219.63
2022-08-28T04:43:39.699Z,101224.09
2022-08-28T04:46:08.815Z,101212.44
2022-08-28T04:48:36.268Z,101226.00
2022-08-28T04:51:05.672Z,101228.69
2022-08-28T04:53:32.941Z,101228.69
2022-08-28T04:56:02.435Z,101234.19
2022-08-28T04:58:34.244Z,101234.19
2022-08-28T05:01:13.109Z,101238.72
2022-08-28T05:03:40.004Z,101231.47
2022-08-28T05:06:07.273Z,101235.94
2022-08-28T05:08:34.597Z,101234.06
2022-08-28T05:11:33.147Z,101230.44
2022-08-28T05:14:04.310Z,101229.41
2022-08-28T05:16:31.888Z,101237.53
2022-08-28T05:19:03.144Z,101230.34
2022-08-28T05:21:29.848Z,101243.03
2022-08-28T05:23:58.031Z,101233.91
2022-08-28T05:26:27.053Z,101241.09
2022-08-28T05:28:56.641Z,101239.25
2022-08-28T05:31:24.392Z,101238.28
2022-08-28T05:33:52.649Z,101243.63
2022-08-28T05:36:22.544Z,101239.03
2022-08-28T05:38:51.362Z,101240.75
2022-08-28T05:41:24.514Z,101242.56
2022-08-28T05:43:53.954Z,101242.56
2022-08-28T05:46:22.276Z,101242.50
2022-08-28T05:48:49.567Z,101245.16
2022-08-28T05:51:20.060Z,101247.88
2022-08-28T05:53:49.938Z,101250.50
2022-08-28T05:56:23.620Z,101251.38
2022-08-28T05:58:50.226Z,101253.09
2022-08-28T06:01:24.261Z,101253.94
2022-08-28T06:03:57.788Z,101254.84
2022-08-28T06:06:26.058Z,101256.50
2022-08-28T06:08:58.549Z,101250.88
2022-08-28T06:11:31.149Z,101252.59
2022-08-28T06:14:03.284Z,101248.91
2022-08-28T06:16:32.976Z,101257.81
2022-08-28T06:19:00.912Z,101256.81
2022-08-28T06:21:28.456Z,101257.50
2022-08-28T06:23:55.236Z,101262.88
2022-08-28T06:26:22.401Z,101268.22
2022-08-28T06:28:49.117Z,101270.81
2022-08-28T06:31:23.442Z,101269.91
2022-08-28T06:33:56.130Z,101271.69
2022-08-28T06:36:24.728Z,101271.53
2022-08-28T06:38:51.460Z,101279.59
2022-08-28T06:41:18.812Z,101290.44
2022-08-28T06:43:49.547Z,101288.53
2022-08-28T06:46:19.999Z,101286.50
2022-08-28T06:48:47.114Z,101288.25
2022-08-28T06:51:14.733Z,101290.81
2022-08-28T06:53:43.718Z,101290.69
2022-08-28T06:56:26.477Z,101292.47
2022-08-28T06:58:56.649Z,101299.56
2022-08-28T07:01:30.102Z,101300.41
2022-08-28T07:04:01.293Z,101301.16
2022-08-28T07:06:32.277Z,101299.06
2022-08-28T07:08:58.867Z,101305.25
2022-08-28T07:11:29.298Z,101302.53
2022-08-28T07:13:57.113Z,101287.78
2022-08-28T07:16:27.515Z,101291.22
2022-08-28T07:18:57.372Z,101281.88
2022-08-28T07:21:25.566Z,101290.78
2022-08-28T07:23:52.310Z,101296.94
2022-08-28T07:26:23.269Z,101303.84
2022-08-28T07:28:51.307Z,101305.41
2022-08-28T07:31:26.750Z,101303.28
2022-08-28T07:33:55.045Z,101309.19
2022-08-28T07:36:29.550Z,101299.75
2022-08-28T07:38:59.464Z,101305.88
2022-08-28T07:41:32.013Z,101301.03
2022-08-28T07:44:18.278Z,101302.72
2022-08-28T07:46:45.710Z,101306.31
2022-08-28T07:49:16.964Z,101298.84
2022-08-28T07:51:43.647Z,101307.66
2022-08-28T07:54:17.592Z,101301.41
2022-08-28T07:56:46.076Z,101307.00
2022-08-28T07:59:16.641Z,101309.19
2022-08-28T08:01:49.071Z,101302.25
2022-08-28T08:04:17.227Z,101306.97
2022-08-28T08:06:44.381Z,101303.28
2022-08-28T08:09:13.782Z,101305.13
2022-08-28T08:11:40.874Z,101299.78
2022-08-28T08:14:07.564Z,101308.50
2022-08-28T08:16:38.642Z,101308.34
2022-08-28T08:19:06.461Z,101307.63
2022-08-28T08:21:33.185Z,101313.03
2022-08-28T08:24:03.034Z,101310.19
2022-08-28T08:26:29.738Z,101311.03
2022-08-28T08:28:57.180Z,101308.75
2022-08-28T08:31:27.566Z,101303.53
2022-08-28T08:33:57.874Z,101303.66
2022-08-28T08:36:26.523Z,101304.31
2022-08-28T08:38:59.162Z,101298.94
2022-08-28T08:41:48.552Z,101308.19
2022-08-28T08:44:15.085Z,101299.78
2022-08-28T08:46:52.779Z,101303.78
2022-08-28T08:49:25.952Z,101309.16
2022-08-28T08:52:26.998Z,101309.28
2022-08-28T08:55:10.330Z,101307.91
2022-08-28T08:57:44.390Z,101301.44
2022-08-28T09:00:17.743Z,101311.78
2022-08-28T09:03:02.638Z,101312.31
2022-08-28T09:05:42.478Z,101311.09
2022-08-28T09:08:17.752Z,101315.06
2022-08-28T09:10:55.024Z,101316.84
2022-08-28T09:13:32.084Z,101303.44
2022-08-28T09:16:02.297Z,101311.63
2022-08-28T09:18:34.341Z,101311.44
2022-08-28T09:21:01.155Z,101317.09
2022-08-28T09:23:29.870Z,101315.81
2022-08-28T09:26:03.053Z,101304.34
2022-08-28T09:28:36.113Z,101315.09
2022-08-28T09:31:34.418Z,101305.88
2022-08-28T09:34:35.480Z,101310.31
2022-08-28T09:37:08.604Z,101307.50
2022-08-28T09:39:38.225Z,101305.59
2022-08-28T09:42:32.725Z,101312.72
2022-08-28T09:45:13.793Z,101311.22
2022-08-28T09:47:51.449Z,101313.00
2022-08-28T09:50:32.115Z,101314.63
2022-08-28T09:53:20.606Z,101316.06
2022-08-28T09:56:05.866Z,101318.66
2022-08-28T09:58:42.449Z,101316.72
2022-08-28T10:01:18.200Z,101314.63
2022-08-28T10:04:15.397Z,101324.44
2022-08-28T10:06:48.860Z,101319.22
2022-08-28T10:09:31.655Z,101318.34
2022-08-28T10:12:04.461Z,101317.59
2022-08-28T10:14:46.624Z,101316.47
2022-08-28T10:17:32.192Z,101317.81
2022-08-28T10:20:03.692Z,101320.06
2022-08-28T10:22:44.295Z,101317.31
2022-08-28T10:25:22.634Z,101317.63
2022-08-28T10:28:05.403Z,101318.44
2022-08-28T10:30:39.239Z,101323.13
2022-08-28T10:33:13.888Z,101322.00
2022-08-28T10:35:51.689Z,101308.38
2022-08-28T10:38:27.348Z,101307.50
2022-08-28T10:41:23.301Z,101316.31
2022-08-28T10:43:53.099Z,101320.84
2022-08-28T10:46:29.752Z,101308.53
2022-08-28T10:49:02.061Z,101305.94
2022-08-28T10:51:35.453Z,101308.94
2022-08-28T10:54:07.761Z,101314.72
2022-08-28T10:56:43.922Z,101294.13
2022-08-28T10:59:10.514Z,101307.88
2022-08-28T11:01:41.879Z,101307.66
2022-08-28T11:04:23.443Z,101310.44
2022-08-28T11:06:56.611Z,101304.34
2022-08-28T11:09:36.787Z,101298.56
2022-08-28T11:12:10.055Z,101299.38
2022-08-28T11:14:48.541Z,101308.75
2022-08-28T11:17:25.455Z,101307.78
2022-08-28T11:20:14.089Z,101304.41
2022-08-28T11:22:46.937Z,101317.88
2022-08-28T11:25:26.601Z,101311.84
2022-08-28T11:28:22.392Z,101298.16
2022-08-28T11:31:10.482Z,101308.81
2022-08-28T11:33:52.919Z,101306.28
2022-08-28T11:36:22.574Z,101303.47
2022-08-28T11:38:52.145Z,101307.47
2022-08-28T11:41:24.376Z,101311.56
2022-08-28T11:43:52.507Z,101306.03
2022-08-28T11:46:32.851Z,101306.94
2022-08-28T11:49:03.269Z,101297.53
2022-08-28T11:51:49.734Z,101298.97
2022-08-28T11:54:27.524Z,101305.53
2022-08-28T11:57:03.504Z,101303.44
2022-08-28T11:59:40.029Z,101301.25
2022-08-28T12:02:40.960Z,101309.50
2022-08-28T12:05:11.452Z,101300.28
2022-08-28T12:07:44.483Z,101285.50
2022-08-28T12:10:20.661Z,101291.69
2022-08-28T12:12:47.235Z,101297.69
2022-08-28T12:15:33.389Z,101289.06
2022-08-28T12:18:06.464Z,101298.03
2022-08-28T12:20:51.280Z,101305.06
2022-08-28T12:23:44.431Z,101305.63
2022-08-28T12:26:22.366Z,101299.44
2022-08-28T12:28:55.992Z,101288.34
2022-08-28T12:31:56.206Z,101283.41
2022-08-28T12:34:38.118Z,101285.59
2022-08-28T12:37:21.397Z,101288.75
2022-08-28T12:39:48.085Z,101282.91
2022-08-28T12:42:18.890Z,101289.88
2022-08-28T12:44:47.038Z,101297.34
2022-08-28T12:47:17.577Z,101289.19
2022-08-28T12:49:44.755Z,101284.72
2022-08-28T12:52:21.283Z,101282.09
2022-08-28T12:54:55.097Z,101282.91
2022-08-28T12:57:25.162Z,101287.38
2022-08-28T12:59:54.501Z,101287.06
2022-08-28T13:02:26.102Z,101289.41
2022-08-28T13:04:55.594Z,101283.75
2022-08-28T13:07:36.741Z,101278.38
2022-08-28T13:10:17.781Z,101286.31
2022-08-28T13:12:54.986Z,101273.75
2022-08-28T13:15:52.584Z,101275.38
2022-08-28T13:18:42.813Z,101273.59
2022-08-28T13:21:25.542Z,101271.25
2022-08-28T13:24:27.165Z,101266.19
2022-08-28T13:27:17.899Z,101272.38
2022-08-28T13:30:08.061Z,101277.25
2022-08-28T13:32:39.324Z,101274.41
2022-08-28T13:35:12.827Z,101277.41
2022-08-28T13:37:41.068Z,101269.94
2022-08-28T13:40:19.781Z,101276.09
2022-08-28T13:43:06.866Z,101275.53
2022-08-28T13:45:42.342Z,101278.72
2022-08-28T13:48:16.269Z,101278.38
2022-08-28T13:50:45.704Z,101269.72
2022-08-28T13:53:15.269Z,101279.53
2022-08-28T13:55:42.026Z,101278.47
2022-08-28T13:58:08.685Z,101275.13
2022-08-28T14:00:39.884Z,101271.81
2022-08-28T14:03:26.193Z,101276.63
2022-08-28T14:05:55.268Z,101268.91
2022-08-28T14:08:22.179Z,101272.84
2022-08-28T14:10:49.003Z,101281.41
2022-08-28T14:13:15.864Z,101287.19
2022-08-28T14:15:42.483Z,101279.81
2022-08-28T14:18:09.413Z,101284.03
2022-08-28T14:20:38.224Z,101270.16
2022-08-28T14:23:05.035Z,101277.13
2022-08-28T14:25:37.069Z,101269.78
2022-08-28T14:28:05.801Z,101273.09
2022-08-28T14:30:32.668Z,101266.84
2022-08-28T14:32:59.235Z,101267.56
2022-08-28T14:35:26.608Z,101265.69
2022-08-28T14:37:53.221Z,101256.16
2022-08-28T14:40:20.853Z,101266.72
2022-08-28T14:42:47.583Z,101251.81
2022-08-28T14:45:14.273Z,101257.47
2022-08-28T14:47:40.897Z,101258.69
2022-08-28T14:50:08.183Z,101246.91
2022-08-28T14:52:35.124Z,101250.47
2022-08-28T14:55:02.384Z,101259.72
2022-08-28T14:57:29.254Z,101255.13
2022-08-28T14:59:56.073Z,101256.31
2022-08-28T15:02:22.701Z,101250.72
2022-08-28T15:04:50.808Z,101249.34
2022-08-28T15:07:17.698Z,101249.53
2022-08-28T15:09:44.261Z,101255.19
2022-08-28T15:12:11.358Z,101253.00
2022-08-28T15:14:38.179Z,101264.59
2022-08-28T15:17:05.753Z,101260.13
2022-08-28T15:19:33.010Z,101257.78
2022-08-28T15:22:00.254Z,101260.78
2022-08-28T15:24:31.393Z,101263.47
2022-08-28T15:26:59.858Z,101258.88
2022-08-28T15:29:28.109Z,101266.22
2022-08-28T15:31:55.277Z,101267.34
2022-08-28T15:34:25.288Z,101263.94
2022-08-28T15:36:55.095Z,101264.28
2022-08-28T15:39:46.445Z,101263.53
2022-08-28T15:42:13.906Z,101268.31
2022-08-28T15:44:40.951Z,101262.00
2022-08-28T15:47:09.055Z,101259.38
2022-08-28T15:49:43.679Z,101263.25
2022-08-28T15:52:19.469Z,101271.78
2022-08-28T15:54:47.086Z,101274.44
2022-08-28T15:57:13.966Z,101273.47
2022-08-28T15:59:49.994Z,101262.91
2022-08-28T16:02:22.409Z,101276.47
2022-08-28T16:04:49.582Z,101274.66
2022-08-28T16:07:18.566Z,101276.63
2022-08-28T16:09:45.457Z,101275.44
2022-08-28T16:12:12.262Z,101272.97
2022-08-28T16:14:39.500Z,101274.91
2022-08-28T16:17:10.821Z,101276.56
2022-08-28T16:19:41.714Z,101274.78
2022-08-28T16:22:10.166Z,101274.03
2022-08-28T16:24:37.704Z,101269.81
2022-08-28T16:27:07.849Z,101278.94
2022-08-28T16:29:37.862Z,101290.97
2022-08-28T16:32:08.280Z,101289.28
2022-08-28T16:34:35.138Z,101287.78
2022-08-28T16:37:03.713Z,101283.25
2022-08-28T16:39:30.605Z,101288.81
2022-08-28T16:41:57.505Z,101287.38
2022-08-28T16:44:26.170Z,101292.22
2022-08-28T16:46:53.729Z,101297.19
2022-08-28T16:49:23.956Z,101292.44
2022-08-28T16:51:50.864Z,101294.56
2022-08-28T16:54:18.249Z,101304.00
2022-08-28T16:56:46.330Z,101299.59
2022-08-28T16:59:16.547Z,101295.75
2022-08-28T17:01:43.471Z,101301.31
2022-08-28T17:04:10.521Z,101305.84
2022-08-28T17:06:37.106Z,101305.00
2022-08-28T17:09:04.196Z,101310.72
2022-08-28T17:11:31.009Z,101310.13
2022-08-28T17:13:58.710Z,101308.72
2022-08-28T17:16:31.382Z,101306.19
2022-08-28T17:19:01.657Z,101303.78
2022-08-28T17:21:46.977Z,101304.94
2022-08-28T17:24:13.893Z,101299.78
2022-08-28T17:26:42.312Z,101301.06
2022-08-28T17:29:09.363Z,101303.69
2022-08-28T17:31:39.078Z,101302.25
2022-08-28T17:34:07.313Z,101294.97
2022-08-28T17:36:37.709Z,101294.09
2022-08-28T17:39:08.954Z,101304.16
2022-08-28T17:41:35.654Z,101297.94
2022-08-28T17:44:03.431Z,101299.81
2022-08-28T17:46:32.906Z,101296.38
2022-08-28T17:49:03.566Z,101294.66
2022-08-28T17:51:42.297Z,101289.38
2022-08-28T17:54:17.725Z,101301.44
2022-08-28T17:56:46.254Z,101298.94
2022-08-28T17:59:13.219Z,101301.75
2022-08-28T18:01:41.880Z,101300.16
2022-08-28T18:04:09.008Z,101304.78
2022-08-28T18:06:37.111Z,101314.34
2022-08-28T18:09:05.081Z,101319.97
2022-08-28T18:11:31.956Z,101317.50
2022-08-28T18:14:01.063Z,101318.50
2022-08-28T18:16:31.915Z,101324.94
2022-08-28T18:19:00.342Z,101335.25
2022-08-28T18:21:28.264Z,101328.31
2022-08-28T18:23:55.042Z,101332.47
2022-08-28T18:26:23.188Z,101340.16
2022-08-28T18:28:50.843Z,101343.28
2022-08-28T18:31:18.085Z,101344.34
2022-08-28T18:33:45.034Z,101347.38
2022-08-28T18:36:13.914Z,101342.09
2022-08-28T18:38:42.349Z,101341.31
2022-08-28T18:41:10.065Z,101346.09
2022-08-28T18:43:37.234Z,101345.34
2022-08-28T18:46:05.930Z,101352.84
2022-08-28T18:48:33.077Z,101360.31
2022-08-28T18:50:59.712Z,101359.63
2022-08-28T18:53:27.901Z,101366.22
2022-08-28T18:55:55.645Z,101364.53
2022-08-28T18:58:24.422Z,101356.41
2022-08-28T19:00:51.537Z,101373.88
2022-08-28T19:03:18.413Z,101372.41
2022-08-28T19:05:48.513Z,101376.16
2022-08-28T19:08:15.379Z,101380.84
2022-08-28T19:10:42.203Z,101374.69
2022-08-28T19:13:09.124Z,101377.63
2022-08-28T19:15:35.973Z,101395.09
2022-08-28T19:18:03.118Z,101394.28
2022-08-28T19:20:30.483Z,101389.06
2022-08-28T19:22:58.288Z,101408.28
2022-08-28T19:25:28.247Z,101396.59
2022-08-28T19:27:59.326Z,101396.84
2022-08-28T19:30:28.390Z,101408.03
2022-08-28T19:32:55.207Z,101400.84
2022-08-28T19:35:24.901Z,101404.53
2022-08-28T19:37:54.372Z,101410.09
2022-08-28T19:40:22.026Z,101409.34
2022-08-28T19:42:49.998Z,101413.22
2022-08-28T19:45:17.885Z,101407.91
2022-08-28T19:47:45.334Z,101413.44
2022-08-28T19:50:14.403Z,101430.88
2022-08-28T19:52:43.009Z,101426.41
2022-08-28T19:55:18.224Z,101427.44
2022-08-28T19:57:46.813Z,101427.63
2022-08-28T20:00:17.659Z,101427.69
2022-08-28T20:02:45.085Z,101428.81
2022-08-28T20:05:11.951Z,101428.03
2022-08-28T20:07:38.645Z,101436.38
2022-08-28T20:10:06.389Z,101445.56
2022-08-28T20:12:34.102Z,101435.69
2022-08-28T20:15:03.597Z,101435.81
2022-08-28T20:17:30.675Z,101449.63
2022-08-28T20:20:02.332Z,101451.53
2022-08-28T20:22:29.713Z,101451.72
2022-08-28T20:24:56.362Z,101460.84
2022-08-28T20:27:22.920Z,101456.44
2022-08-28T20:29:49.608Z,101458.38
2022-08-28T20:32:16.281Z,101464.88
2022-08-28T20:34:44.580Z,101461.38
2022-08-28T20:37:11.721Z,101459.69
2022-08-28T20:39:41.438Z,101458.94
2022-08-28T20:42:09.424Z,101467.25
2022-08-28T20:44:37.814Z,101462.81
2022-08-28T20:47:05.414Z,101461.06
2022-08-28T20:49:32.323Z,101462.06
2022-08-28T20:52:05.619Z,101460.38
2022-08-28T20:54:37.475Z,101468.72
2022-08-28T20:57:07.924Z,101455.22
2022-08-28T20:59:40.024Z,101457.06
2022-08-28T21:02:14.991Z,101457.13
2022-08-28T21:04:43.655Z,101460.88
2022-08-28T21:07:11.458Z,101454.66
2022-08-28T21:10:02.204Z,101457.50
2022-08-28T21:12:25.614Z,101464.84
2022-08-28T21:14:52.881Z,101472.22
2022-08-28T21:17:20.863Z,101474.16
2022-08-28T21:19:58.477Z,101464.31
2022-08-28T21:22:25.076Z,101465.31
2022-08-28T21:24:52.443Z,101464.44
2022-08-28T21:27:21.033Z,101463.59
2022-08-28T21:29:47.981Z,101460.03
2022-08-28T21:32:14.972Z,101460.06
2022-08-28T21:34:41.653Z,101463.78
2022-08-28T21:37:08.262Z,101461.09
2022-08-28T21:39:35.219Z,101461.19
2022-08-28T21:42:02.158Z,101465.75
2022-08-28T21:44:28.978Z,101461.28
2022-08-28T21:46:55.632Z,101457.69
2022-08-28T21:49:23.005Z,101456.88
2022-08-28T21:51:50.575Z,101463.31
2022-08-28T21:54:19.446Z,101460.59
2022-08-28T21:56:46.255Z,101459.69
2022-08-28T21:59:14.793Z,101453.38
2022-08-28T22:01:43.803Z,101449.78
2022-08-28T22:04:10.701Z,101458.03
2022-08-28T22:06:37.347Z,101457.25
2022-08-28T22:09:04.875Z,101464.56
2022-08-28T22:11:31.696Z,101470.00
2022-08-28T22:13:58.255Z,101469.19
2022-08-28T22:16:26.777Z,101468.28
2022-08-28T22:18:54.244Z,101478.34
2022-08-28T22:21:44.073Z,101478.41
2022-08-28T22:24:11.725Z,101471.25
2022-08-28T22:26:38.410Z,101473.13
2022-08-28T22:29:05.903Z,101481.38
2022-08-28T22:31:32.627Z,101485.94
2022-08-28T22:33:59.254Z,101489.69
2022-08-28T22:36:29.179Z,101487.97
2022-08-28T22:38:58.316Z,101489.88
2022-08-28T22:41:25.305Z,101489.84
2022-08-28T22:43:53.073Z,101494.41
2022-08-28T22:46:20.692Z,101500.84
2022-08-28T22:48:53.420Z,101489.06
2022-08-28T22:51:20.789Z,101480.09
2022-08-28T22:53:48.186Z,101483.72
2022-08-28T22:56:17.101Z,101478.31
2022-08-28T22:58:44.038Z,101489.22
2022-08-28T23:01:22.553Z,101489.31
2022-08-28T23:03:49.866Z,101487.47
2022-08-28T23:06:16.813Z,101490.22
2022-08-28T23:08:43.460Z,101482.97
2022-08-28T23:11:11.083Z,101478.41
2022-08-28T23:13:38.311Z,101480.22
2022-08-28T23:16:05.956Z,101482.03
2022-08-28T23:18:46.279Z,101484.72
2022-08-28T23:21:23.676Z,101473.88
2022-08-28T23:23:53.489Z,101482.03
2022-08-28T23:26:20.233Z,101467.53
2022-08-28T23:28:46.972Z,101472.97
2022-08-28T23:31:13.972Z,101478.34
2022-08-28T23:33:41.037Z,101483.78
2022-08-28T23:36:08.025Z,101477.47
2022-08-28T23:38:38.953Z,101481.97
2022-08-28T23:41:08.009Z,101481.00
2022-08-28T23:43:35.071Z,101476.38
2022-08-28T23:46:01.915Z,101473.03
2022-08-28T23:48:29.169Z,101468.66
2022-08-28T23:50:55.909Z,101462.53
2022-08-28T23:53:22.553Z,101460.75
2022-08-28T23:55:49.798Z,101461.69
2022-08-28T23:58:20.712Z,101464.38
